createdAt,value
2023-02-04T00:01:58.139Z,99834.09
2023-02-04T00:04:24.729Z,99837.28
2023-02-04T00:06:51.314Z,99836.13
2023-02-04T00:09:17.699Z,99853.13
2023-02-04T00:11:44.926Z,99843.31
2023-02-04T00:14:11.664Z,99842.25
2023-02-04T00:16:38.063Z,99834.63
2023-02-04T00:19:04.597Z,99828.44
2023-02-04T00:21:31.074Z,99839.47
2023-02-04T00:23:57.524Z,99845.44
2023-02-04T00:26:24.046Z,99843.31
2023-02-04T00:28:50.466Z,99842.25
2023-02-04T00:31:17.030Z,99840.38
2023-02-04T00:33:43.879Z,99837.59
2023-02-04T00:36:10.492Z,99840.53
2023-02-04T00:38:37.040Z,99841.09
2023-02-04T01:25:13.106Z,99850.00
2023-02-04T01:28:01.041Z,99869.34
2023-02-04T01:31:01.871Z,99879.81
2023-02-04T01:33:53.602Z,99883.00
2023-02-04T01:36:43.797Z,99880.66
2023-02-04T01:39:16.270Z,99894.06
2023-02-04T01:41:43.299Z,99879.97
2023-02-04T01:44:10.237Z,99885.59
2023-02-04T01:46:37.419Z,99884.22
2023-02-04T01:49:06.509Z,99893.38
2023-02-04T01:51:33.217Z,99893.13
2023-02-04T01:54:00.267Z,99884.22
2023-02-04T01:56:29.503Z,99889.59
2023-02-04T01:58:58.005Z,99891.25
2023-02-04T02:01:56.785Z,99899.91
2023-02-04T02:04:31.428Z,99892.38
2023-02-04T02:07:01.739Z,99894.06
2023-02-04T02:09:30.489Z,99908.34
2023-02-04T02:11:57.309Z,99904.34
2023-02-04T02:14:23.904Z,99909.50
2023-02-04T02:16:50.606Z,99912.44
2023-02-04T02:19:26.041Z,99909.75
2023-02-04T02:22:03.557Z,99908.94
2023-02-04T02:24:33.305Z,99918.91
2023-02-04T02:27:11.469Z,99922.75
2023-02-04T02:29:41.165Z,99928.38
2023-02-04T02:32:09.158Z,99937.91
2023-02-04T02:34:36.189Z,99940.81
2023-02-04T02:37:03.375Z,99941.88
2023-02-04T02:39:30.188Z,99925.13
2023-02-04T02:41:58.754Z,99924.28
2023-02-04T02:44:26.483Z,99927.25
2023-02-04T02:46:54.423Z,99929.13
2023-02-04T02:49:22.113Z,99948.22
2023-02-04T02:51:49.320Z,99944.13
2023-02-04T02:54:24.030Z,99939.78
2023-02-04T02:56:51.183Z,99946.44
2023-02-04T02:59:18.612Z,99957.72
2023-02-04T03:01:48.162Z,99967.69
2023-02-04T03:04:15.696Z,99952.00
2023-02-04T03:06:42.169Z,99962.97
2023-02-04T03:09:08.776Z,99958.66
2023-02-04T03:11:35.294Z,99963.22
2023-02-04T03:14:02.542Z,99966.41
2023-02-04T03:16:32.679Z,99973.31
2023-02-04T03:19:02.407Z,99976.00
2023-02-04T03:21:29.230Z,99986.22
2023-02-04T03:23:56.737Z,99971.31
2023-02-04T03:26:26.650Z,99984.56
2023-02-04T03:28:54.274Z,99978.00
2023-02-04T03:31:21.331Z,99974.25
2023-02-04T03:33:47.827Z,99988.78
2023-02-04T03:36:14.301Z,99983.88
2023-02-04T03:38:41.224Z,99983.00
2023-02-04T04:11:23.602Z,100045.53
2023-02-04T04:13:52.939Z,100039.56
2023-02-04T04:16:37.498Z,100046.03
2023-02-04T04:19:14.871Z,100049.78
2023-02-04T04:21:54.003Z,100048.34
2023-02-04T04:24:33.064Z,100054.78
2023-02-04T04:27:20.351Z,100057.94
2023-02-04T04:30:00.540Z,100056.50
2023-02-04T04:32:39.645Z,100064.81
2023-02-04T04:35:34.236Z,100059.91
2023-02-04T04:38:24.226Z,100062.84
2023-02-04T04:40:50.755Z,100061.16
2023-02-04T04:43:17.211Z,100063.50
2023-02-04T04:45:43.639Z,100070.78
2023-02-04T04:48:10.086Z,100074.72
2023-02-04T04:50:36.632Z,100081.16
2023-02-04T04:53:03.102Z,100080.34
2023-02-04T04:55:30.593Z,100071.69
2023-02-04T04:57:56.965Z,100074.13
2023-02-04T05:00:23.742Z,100071.91
2023-02-04T05:02:50.127Z,100081.25
2023-02-04T05:05:16.697Z,100080.44
2023-02-04T05:07:43.136Z,100074.69
2023-02-04T05:10:09.832Z,100088.16
2023-02-04T05:12:36.283Z,100082.97
2023-02-04T05:15:02.812Z,100081.34
2023-02-04T05:17:29.408Z,100070.56
2023-02-04T05:19:55.815Z,100074.31
2023-02-04T05:22:22.255Z,100076.41
2023-02-04T05:24:48.729Z,100067.75
2023-02-04T05:27:15.126Z,100068.19
2023-02-04T05:29:41.583Z,100081.06
2023-02-04T05:32:08.055Z,100083.50
2023-02-04T05:34:34.546Z,100085.22
2023-02-04T05:37:01.027Z,100100.56
2023-02-04T05:39:27.985Z,100093.78
2023-02-04T05:41:54.386Z,100090.03
2023-02-04T05:44:20.819Z,100093.78
2023-02-04T05:46:47.263Z,100092.72
2023-02-04T05:49:13.754Z,100082.78
2023-02-04T05:51:40.786Z,100077.84
2023-02-04T05:54:07.237Z,100076.19
2023-02-04T05:56:33.841Z,100080.97
2023-02-04T05:59:00.227Z,100086.59
2023-02-04T06:01:26.637Z,100085.78
2023-02-04T06:03:53.051Z,100092.41
2023-02-04T06:06:19.469Z,100105.88
2023-02-04T06:08:45.911Z,100105.28
2023-02-04T06:11:12.274Z,100105.50
2023-02-04T06:13:38.659Z,100124.56
2023-02-04T06:16:05.262Z,100129.72
2023-02-04T06:18:31.613Z,100137.38
2023-02-04T06:20:57.984Z,100136.78
2023-02-04T06:23:24.372Z,100147.56
2023-02-04T06:25:50.722Z,100136.63
2023-02-04T06:28:17.558Z,100136.03
2023-02-04T06:30:44.446Z,100133.56
2023-02-04T06:33:10.988Z,100144.34
2023-02-04T06:35:37.460Z,100146.22
2023-02-04T06:38:03.840Z,100152.63
2023-02-04T06:40:30.425Z,100158.22
2023-02-04T06:42:57.017Z,100160.09
2023-02-04T06:45:23.402Z,100156.16
2023-02-04T06:47:49.765Z,100163.41
2023-02-04T06:50:18.846Z,100165.03
2023-02-04T06:52:48.557Z,100168.56
2023-02-04T06:55:16.378Z,100170.84
2023-02-04T06:57:43.271Z,100182.84
2023-02-04T07:00:11.469Z,100182.44
2023-02-04T07:02:39.819Z,100190.31
2023-02-04T07:05:06.554Z,100190.31
2023-02-04T07:07:32.948Z,100195.69
2023-02-04T07:09:59.410Z,100197.75
2023-02-04T07:12:25.821Z,100188.66
2023-02-04T07:14:52.201Z,100204.34
2023-02-04T07:17:18.685Z,100206.22
2023-02-04T07:19:45.104Z,100216.53
2023-02-04T07:22:11.470Z,100220.50
2023-02-04T07:24:37.986Z,100231.03
2023-02-04T07:27:04.458Z,100238.88
2023-02-04T07:29:30.827Z,100244.28
2023-02-04T07:31:57.380Z,100252.34
2023-02-04T07:34:23.932Z,100238.69
2023-02-04T07:36:50.523Z,100242.19
2023-02-04T07:39:16.964Z,100240.34
2023-02-04T07:41:43.481Z,100245.94
2023-02-04T07:44:09.885Z,100243.25
2023-02-04T07:46:36.311Z,100248.63
2023-02-04T07:49:02.895Z,100248.63
2023-02-04T07:51:29.409Z,100248.63
2023-02-04T07:53:56.704Z,100249.47
2023-02-04T07:56:23.418Z,100253.16
2023-02-04T07:58:49.929Z,100263.09
2023-02-04T08:01:17.038Z,100276.97
2023-02-04T08:03:43.700Z,100277.56
2023-02-04T08:06:10.416Z,100277.16
2023-02-04T08:08:36.788Z,100276.13
2023-02-04T08:11:03.232Z,100271.56
2023-02-04T08:13:29.700Z,100277.53
2023-02-04T08:15:56.144Z,100275.91
2023-02-04T08:18:24.986Z,100282.31
2023-02-04T08:20:51.812Z,100290.78
2023-02-04T08:23:18.307Z,100296.97
2023-02-04T08:25:45.484Z,100286.22
2023-02-04T08:28:11.995Z,100292.81
2023-02-04T08:30:38.432Z,100294.91
2023-02-04T08:33:04.920Z,100301.94
2023-02-04T08:35:31.360Z,100298.84
2023-02-04T08:37:58.104Z,100307.75
2023-02-04T08:40:24.573Z,100309.84
2023-02-04T08:42:51.028Z,100318.13
2023-02-04T08:45:17.544Z,100310.66
2023-02-04T08:47:43.992Z,100315.44
2023-02-04T08:50:11.372Z,100314.41
2023-02-04T08:52:37.982Z,100312.31
2023-02-04T08:55:05.012Z,100321.81
2023-02-04T08:57:31.539Z,100324.75
2023-02-04T09:00:11.694Z,100332.81
2023-02-04T09:02:38.104Z,100337.16
2023-02-04T09:05:04.894Z,100334.47
2023-02-04T09:07:31.475Z,100323.47
2023-02-04T09:10:03.909Z,100333.78
2023-02-04T09:12:30.312Z,100337.31
2023-02-04T09:14:56.755Z,100340.41
2023-02-04T09:17:23.182Z,100333.97
2023-02-04T09:19:49.636Z,100345.34
2023-02-04T09:22:16.034Z,100354.19
2023-02-04T09:24:42.482Z,100363.66
2023-02-04T09:27:08.892Z,100358.75
2023-02-04T09:29:35.295Z,100363.44
2023-02-04T09:32:01.743Z,100366.66
2023-02-04T09:34:28.297Z,100366.44
2023-02-04T09:36:54.669Z,100368.09
2023-02-04T09:39:21.131Z,100371.34
2023-02-04T09:41:47.715Z,100371.88
2023-02-04T09:44:20.240Z,100369.94
2023-02-04T09:46:53.643Z,100379.06
2023-02-04T09:49:20.183Z,100381.19
2023-02-04T09:51:47.851Z,100390.25
2023-02-04T09:54:15.629Z,100381.19
2023-02-04T09:56:42.302Z,100387.00
2023-02-04T09:59:35.611Z,100387.00
2023-02-04T10:02:07.653Z,100390.69
2023-02-04T10:07:24.106Z,100385.13
2023-02-04T10:09:52.689Z,100387.31
2023-02-04T10:12:19.745Z,100383.19
2023-02-04T10:14:46.651Z,100384.31
2023-02-04T10:17:20.393Z,100386.41
2023-02-04T10:19:46.914Z,100390.53
2023-02-04T10:22:19.496Z,100388.59
2023-02-04T10:24:45.972Z,100402.00
2023-02-04T10:27:16.147Z,100392.03
2023-02-04T10:29:43.858Z,100380.84
2023-02-04T10:32:31.002Z,100372.78
2023-02-04T10:34:59.947Z,100380.03
2023-02-04T10:37:26.484Z,100382.66
2023-02-04T10:39:53.021Z,100382.81
2023-02-04T10:42:25.620Z,100376.75
2023-02-04T10:44:52.822Z,100383.56
2023-02-04T10:47:22.464Z,100388.50
2023-02-04T10:49:54.757Z,100380.78
2023-02-04T10:52:24.392Z,100382.19
2023-02-04T10:54:50.965Z,100370.97
2023-02-04T10:57:24.424Z,100370.81
2023-02-04T10:59:53.719Z,100375.84
2023-02-04T11:02:45.910Z,100366.94
2023-02-04T11:05:16.042Z,100372.94
2023-02-04T11:07:43.338Z,100374.66
2023-02-04T11:10:16.137Z,100382.19
2023-02-04T11:12:50.941Z,100385.09
2023-02-04T11:15:51.156Z,100387.28
2023-02-04T11:18:20.673Z,100384.94
2023-02-04T11:20:52.934Z,100383.41
2023-02-04T11:23:34.346Z,100373.19
2023-02-04T11:26:10.322Z,100380.91
2023-02-04T11:28:59.141Z,100372.88
2023-02-04T11:31:26.539Z,100381.44
2023-02-04T11:34:12.303Z,100379.47
2023-02-04T11:37:09.133Z,100374.06
2023-02-04T11:39:39.767Z,100378.41
2023-02-04T11:42:14.426Z,100378.97
2023-02-04T11:44:40.978Z,100377.22
2023-02-04T11:47:08.580Z,100367.31
2023-02-04T11:49:36.784Z,100374.97
2023-02-04T11:52:10.766Z,100372.53
2023-02-04T11:54:37.254Z,100378.56
2023-02-04T11:57:04.184Z,100375.53
2023-02-04T11:59:30.723Z,100376.00
2023-02-04T12:02:26.044Z,100376.50
2023-02-04T12:04:56.850Z,100378.03
2023-02-04T12:07:30.518Z,100374.84
2023-02-04T12:09:58.652Z,100373.19
2023-02-04T12:12:28.214Z,100376.84
2023-02-04T12:15:14.570Z,100371.94
2023-02-04T12:17:44.651Z,100379.50
2023-02-04T12:20:15.086Z,100380.53
2023-02-04T12:22:41.462Z,100383.47
2023-02-04T12:25:08.224Z,100390.25
2023-02-04T12:27:34.666Z,100383.94
2023-02-04T12:30:01.144Z,100391.41
2023-02-04T12:32:27.612Z,100387.31
2023-02-04T12:34:53.970Z,100389.13
2023-02-04T12:37:20.399Z,100386.78
2023-02-04T12:39:46.820Z,100383.84
2023-02-04T12:42:13.238Z,100383.75
2023-02-04T12:44:39.661Z,100391.78
2023-02-04T12:47:06.101Z,100397.28
2023-02-04T12:49:32.534Z,100390.47
2023-02-04T12:52:02.175Z,100392.53
2023-02-04T12:54:28.549Z,100390.75
2023-02-04T12:56:58.100Z,100394.84
2023-02-04T12:59:25.618Z,100399.19
2023-02-04T13:01:52.294Z,100399.63
2023-02-04T13:04:18.719Z,100394.56
2023-02-04T13:06:45.173Z,100391.53
2023-02-04T13:09:11.612Z,100395.19
2023-02-04T13:11:38.002Z,100388.16
2023-02-04T13:14:04.397Z,100400.88
2023-02-04T13:16:31.046Z,100392.28
2023-02-04T13:18:57.556Z,100398.56
2023-02-04T13:22:08.650Z,100392.25
2023-02-04T13:28:13.757Z,100392.25
2023-02-04T14:19:59.988Z,100409.38
2023-02-04T14:22:26.553Z,100410.78
2023-02-04T14:24:52.979Z,100419.97
2023-02-04T14:27:19.424Z,100417.38
2023-02-04T14:29:45.852Z,100410.13
2023-02-04T14:32:12.263Z,100415.19
2023-02-04T14:34:38.689Z,100428.16
2023-02-04T14:37:05.121Z,100428.00
2023-02-04T14:39:31.614Z,100427.03
2023-02-04T14:41:57.999Z,100433.50
2023-02-04T14:44:24.421Z,100434.22
2023-02-04T14:46:50.852Z,100432.09
2023-02-04T14:49:17.715Z,100433.41
2023-02-04T14:51:44.461Z,100434.66
2023-02-04T14:54:11.149Z,100436.69
2023-02-04T14:56:37.771Z,100437.97
2023-02-04T14:59:04.292Z,100448.16
2023-02-04T15:01:31.095Z,100444.16
2023-02-04T15:03:58.165Z,100439.09
2023-02-04T15:06:24.640Z,100441.06
2023-02-04T15:08:51.058Z,100456.16
2023-02-04T15:11:17.561Z,100446.53
2023-02-04T15:13:43.947Z,100444.56
2023-02-04T15:16:12.234Z,100451.38
2023-02-04T15:18:38.853Z,100448.31
2023-02-04T15:21:05.522Z,100435.56
2023-02-04T15:23:31.974Z,100446.47
2023-02-04T15:25:58.520Z,100442.56
2023-02-04T15:28:25.227Z,100442.56
2023-02-04T15:30:51.950Z,100434.66
2023-02-04T15:33:18.573Z,100443.88
2023-02-04T15:35:45.016Z,100451.00
2023-02-04T15:38:11.707Z,100451.91
2023-02-04T15:40:38.140Z,100451.16
2023-02-04T15:43:04.618Z,100450.19
2023-02-04T15:45:31.110Z,100459.81
2023-02-04T15:47:57.570Z,100460.72
2023-02-04T15:50:23.965Z,100459.75
2023-02-04T15:52:50.433Z,100465.81
2023-02-04T15:55:16.802Z,100465.22
2023-02-04T15:57:43.223Z,100469.16
2023-02-04T16:00:10.165Z,100469.38
2023-02-04T16:02:36.617Z,100476.88
2023-02-04T16:05:03.134Z,100479.81
2023-02-04T16:07:29.568Z,100478.34
2023-02-04T16:09:57.093Z,100482.75
2023-02-04T16:12:23.522Z,100490.25
2023-02-04T16:14:50.044Z,100487.00
2023-02-04T16:17:18.252Z,100490.56
2023-02-04T16:19:45.422Z,100486.06
2023-02-04T16:22:12.119Z,100499.97
2023-02-04T16:24:38.762Z,100495.47
2023-02-04T16:27:05.509Z,100503.97
2023-02-04T16:29:31.987Z,100501.94
2023-02-04T16:31:58.520Z,100509.38
2023-02-04T16:34:26.183Z,100510.06
2023-02-04T16:36:52.677Z,100514.22
2023-02-04T16:39:19.162Z,100514.66
2023-02-04T16:41:45.702Z,100511.78
2023-02-04T16:44:12.243Z,100520.09
2023-02-04T16:46:38.836Z,100522.81
2023-02-04T16:49:05.486Z,100529.66
2023-02-04T16:51:31.880Z,100532.16
2023-02-04T16:53:58.394Z,100525.56
2023-02-04T16:56:24.840Z,100532.63
2023-02-04T16:58:51.239Z,100536.78
2023-02-04T17:01:17.730Z,100533.88
2023-02-04T17:03:44.614Z,100529.13
2023-02-04T17:06:11.127Z,100530.78
2023-02-04T17:08:37.610Z,100540.97
2023-02-04T17:11:22.740Z,100534.56
2023-02-04T17:13:49.169Z,100538.91
2023-02-04T17:16:16.486Z,100542.84
2023-02-04T17:18:43.094Z,100540.56
2023-02-04T17:21:09.463Z,100541.84
2023-02-04T17:23:35.895Z,100536.84
2023-02-04T17:26:02.563Z,100542.66
2023-02-04T17:28:29.016Z,100546.63
2023-02-04T17:30:55.737Z,100550.16
2023-02-04T17:33:22.366Z,100551.81
2023-02-04T17:35:49.013Z,100546.41
2023-02-04T17:38:15.441Z,100546.81
2023-02-04T17:40:42.655Z,100552.19
2023-02-04T17:43:09.554Z,100549.31
2023-02-04T17:45:38.104Z,100555.94
2023-02-04T17:48:05.545Z,100561.53
2023-02-04T17:53:04.104Z,100562.13
2023-02-04T17:55:32.835Z,100559.66
2023-02-04T17:58:02.170Z,100571.66
2023-02-04T18:00:30.948Z,100572.06
2023-02-04T18:02:58.037Z,100573.53
2023-02-04T18:05:27.223Z,100577.88
2023-02-04T18:08:05.986Z,100575.19
2023-02-04T18:10:35.676Z,100569.81
2023-02-04T18:13:11.494Z,100573.31
2023-02-04T18:15:49.853Z,100569.19
2023-02-04T18:18:25.095Z,100568.56
2023-02-04T18:21:17.862Z,100571.47
2023-02-04T18:23:46.002Z,100563.41
2023-02-04T18:26:20.378Z,100570.25
2023-02-04T18:28:49.420Z,100576.44
2023-02-04T18:31:40.002Z,100567.94
2023-02-04T18:34:32.480Z,100568.75
2023-02-04T18:37:00.563Z,100564.63
2023-02-04T18:39:29.003Z,100566.28
2023-02-04T18:41:55.811Z,100565.44
2023-02-04T18:44:34.809Z,100576.19
2023-02-04T18:47:24.704Z,100566.88
2023-02-04T18:49:51.724Z,100566.47
2023-02-04T18:52:20.815Z,100562.94
2023-02-04T18:54:51.558Z,100567.88
2023-02-04T18:57:37.496Z,100565.19
2023-02-04T19:00:27.754Z,100577.59
2023-02-04T19:02:58.324Z,100575.72
2023-02-04T19:05:24.886Z,100569.69
2023-02-04T19:07:58.565Z,100579.00
2023-02-04T19:10:31.811Z,100575.69
2023-02-04T19:13:13.363Z,100588.09
2023-02-04T19:15:39.827Z,100584.78
2023-02-04T19:18:23.662Z,100576.06
2023-02-04T19:20:51.008Z,100575.03
2023-02-04T19:23:20.878Z,100580.00
2023-02-04T19:25:50.105Z,100568.66
2023-02-04T19:28:38.841Z,100576.88
2023-02-04T19:31:07.263Z,100574.63
2023-02-04T19:33:42.873Z,100565.28
2023-02-04T19:36:23.537Z,100572.72
2023-02-04T19:38:56.529Z,100571.91
2023-02-04T19:41:28.864Z,100575.81
2023-02-04T19:44:15.330Z,100578.69
2023-02-04T19:46:42.550Z,100571.47
2023-02-04T19:49:24.308Z,100570.81
2023-02-04T19:51:55.736Z,100574.72
2023-02-04T19:54:25.141Z,100574.13
2023-02-04T19:56:54.643Z,100570.78
2023-02-04T19:59:35.660Z,100574.69
2023-02-04T20:02:27.519Z,100566.84
2023-02-04T20:04:54.772Z,100565.38
2023-02-04T20:07:26.138Z,100566.81
2023-02-04T20:10:08.145Z,100571.75
2023-02-04T20:12:34.627Z,100580.59
2023-02-04T20:15:12.430Z,100578.06
2023-02-04T20:17:46.005Z,100589.00
2023-02-04T20:20:30.429Z,100599.53
2023-02-04T20:23:19.092Z,100608.34
2023-02-04T20:25:49.313Z,100603.75
2023-02-04T20:28:22.486Z,100613.63
2023-02-04T20:30:50.969Z,100613.63
2023-02-04T20:33:26.634Z,100614.28
2023-02-04T20:35:53.060Z,100614.06
2023-02-04T20:38:20.460Z,100619.22
2023-02-04T20:40:47.291Z,100622.94
2023-02-04T20:43:21.333Z,100617.94
2023-02-04T20:45:53.100Z,100618.75
2023-02-04T20:48:20.338Z,100619.53
2023-02-04T20:50:55.280Z,100614.53
2023-02-04T20:53:32.370Z,100617.63
2023-02-04T20:56:07.081Z,100618.00
2023-02-04T20:58:37.722Z,100618.59
2023-02-04T21:01:24.891Z,100622.47
2023-02-04T21:03:51.755Z,100621.22
2023-02-04T21:06:28.339Z,100622.41
2023-02-04T21:08:59.520Z,100629.81
2023-02-04T21:11:26.711Z,100626.31
2023-02-04T21:13:54.047Z,100620.97
2023-02-04T21:16:21.390Z,100620.34
2023-02-04T21:18:47.830Z,100620.69
2023-02-04T21:21:14.950Z,100622.75
2023-02-04T21:23:41.425Z,100617.75
2023-02-04T21:26:08.057Z,100616.31
2023-02-04T21:28:34.593Z,100618.78
2023-02-04T21:31:01.049Z,100612.59
2023-02-04T21:33:27.599Z,100616.94
2023-02-04T21:35:54.170Z,100622.50
2023-02-04T21:38:20.611Z,100618.56
2023-02-04T21:40:47.179Z,100623.25
2023-02-04T21:43:13.701Z,100625.31
2023-02-04T21:45:40.186Z,100627.34
2023-02-04T21:48:08.051Z,100628.38
2023-02-04T21:50:36.187Z,100639.47
2023-02-04T21:53:02.629Z,100635.13
2023-02-04T21:55:29.045Z,100640.69
2023-02-04T21:57:55.698Z,100648.88
2023-02-04T22:00:23.893Z,100641.50
2023-02-04T22:02:54.235Z,100645.66
2023-02-04T22:05:21.714Z,100641.94
2023-02-04T22:07:48.543Z,100640.75
2023-02-04T22:10:18.692Z,100645.09
2023-02-04T22:12:45.308Z,100636.22
2023-02-04T22:15:11.814Z,100640.34
2023-02-04T22:17:38.455Z,100642.00
2023-02-04T22:20:05.341Z,100643.66
2023-02-04T22:22:32.062Z,100637.94
2023-02-04T22:24:58.481Z,100643.94
2023-02-04T22:27:25.008Z,100637.94
2023-02-04T22:29:51.512Z,100633.97
2023-02-04T22:32:17.869Z,100634.16
2023-02-04T22:34:44.339Z,100637.88
2023-02-04T22:37:10.750Z,100627.72
2023-02-04T22:39:37.373Z,100615.97
2023-02-04T22:42:03.919Z,100615.22
2023-02-04T22:44:30.462Z,100622.22
2023-02-04T22:46:57.219Z,100627.97
2023-02-04T22:49:23.701Z,100628.75
2023-02-04T22:51:50.150Z,100631.16
2023-02-04T22:54:16.823Z,100632.66
2023-02-04T22:56:43.349Z,100646.09
2023-02-04T22:59:09.767Z,100647.16
2023-02-04T23:01:36.218Z,100641.66
2023-02-04T23:04:03.059Z,100642.00
2023-02-04T23:06:29.572Z,100647.75
2023-02-04T23:08:56.306Z,100653.13
2023-02-04T23:11:23.216Z,100649.00
2023-02-04T23:13:50.246Z,100642.47
2023-02-04T23:16:17.196Z,100644.94
2023-02-04T23:18:43.634Z,100640.00
2023-02-04T23:21:10.270Z,100642.41
2023-02-04T23:23:36.863Z,100633.28
2023-02-04T23:26:03.994Z,100638.44
2023-02-04T23:28:31.239Z,100637.41
2023-02-04T23:30:58.222Z,100644.06
2023-02-04T23:33:25.014Z,100639.09
2023-02-04T23:35:51.992Z,100634.16
2023-02-04T23:38:18.353Z,100630.25
2023-02-04T23:40:44.935Z,100634.88
2023-02-04T23:43:11.485Z,100645.84
2023-02-04T23:45:38.111Z,100641.78
2023-02-04T23:48:05.181Z,100645.06
2023-02-04T23:50:31.599Z,100639.09
2023-02-04T23:52:57.968Z,100643.63
2023-02-04T23:55:25.082Z,100644.06
2023-02-04T23:57:51.776Z,100638.50
